Time;durP1;ratioP1;P1;durP2;ratioP2;P2;SDS_P1;SDS_P2;PMS_P1;PMS_P2;Temp;Humidity;BMP_temperature;BMP_pressure;BME280_temperature;BME280_humidity;BME280_pressure;Samples;Min_cycle;Max_cycle;Signal;HPM_P1;HPM_P2
2022/06/18 00:01:37;;;;;;;9.00;4.20;;;19.10;99.90;;;;;;5054336;28;20119;-74
2022/06/18 00:04:07;;;;;;;8.27;4.22;;;19.10;99.90;;;;;;5055455;28;20045;-74
2022/06/18 00:06:37;;;;;;;11.55;4.00;;;19.10;99.90;;;;;;5055605;28;20053;-73
2022/06/18 00:09:04;;;;;;;6.78;4.50;;;19.10;99.90;;;;;;5037324;28;20053;-74
2022/06/18 00:14:16;;;;;;;6.60;3.85;;;19.10;99.90;;;;;;5056153;28;20067;-74
2022/06/18 00:16:44;;;;;;;7.13;4.20;;;19.10;99.90;;;;;;5055850;28;20152;-74
2022/06/18 00:19:11;;;;;;;6.40;4.05;;;19.10;99.90;;;;;;5037231;28;20497;-74
2022/06/18 00:21:38;;;;;;;5.57;4.10;;;19.10;99.90;;;;;;5055810;28;20045;-74
2022/06/18 00:24:14;;;;;;;7.28;4.43;;;19.10;99.90;;;;;;5055092;28;20558;-74
2022/06/18 00:26:41;;;;;;;6.38;4.03;;;19.10;99.90;;;;;;5022093;28;20063;-75
2022/06/18 00:29:12;;;;;;;6.13;3.92;;;19.10;99.90;;;;;;5055585;28;20053;-74
2022/06/18 00:31:39;;;;;;;6.20;4.15;;;19.10;99.90;;;;;;5055004;28;20049;-75
2022/06/18 00:34:08;;;;;;;5.97;4.40;;;19.10;99.90;;;;;;5055470;28;20049;-74
2022/06/18 00:36:37;;;;;;;8.15;5.10;;;19.00;99.90;;;;;;5055876;28;20053;-74
2022/06/18 00:39:04;;;;;;;8.30;5.00;;;19.00;99.90;;;;;;5037202;28;20103;-75
2022/06/18 00:41:34;;;;;;;9.95;4.65;;;18.90;99.90;;;;;;5062330;28;20048;-75
2022/06/18 00:44:05;;;;;;;8.45;4.93;;;18.90;99.90;;;;;;5053756;28;20500;-74
2022/06/18 00:46:38;;;;;;;7.50;4.55;;;18.90;99.90;;;;;;5054735;28;20127;-74
2022/06/18 00:49:12;;;;;;;8.60;4.70;;;18.80;99.90;;;;;;5055217;28;20053;-74
2022/06/18 00:51:44;;;;;;;6.90;5.00;;;18.80;99.90;;;;;;5054401;28;20455;-74
2022/06/18 00:54:19;;;;;;;8.98;5.25;;;18.80;99.90;;;;;;5054599;28;20041;-74
2022/06/18 00:56:50;;;;;;;8.82;5.30;;;18.80;99.90;;;;;;5041710;28;20054;-75
2022/06/18 00:59:21;;;;;;;10.25;5.65;;;18.80;99.90;;;;;;5033262;28;20493;-74
2022/06/18 01:01:50;;;;;;;9.30;5.43;;;18.90;99.90;;;;;;5033896;28;20135;-74
2022/06/18 01:04:27;;;;;;;7.70;6.05;;;19.00;99.90;;;;;;5035084;28;20421;-74
2022/06/18 01:07:00;;;;;;;10.05;6.07;;;19.00;99.90;;;;;;5033279;28;20525;-74
2022/06/18 01:09:27;;;;;;;10.52;5.90;;;19.00;99.90;;;;;;5042515;28;20124;-73
2022/06/18 01:11:56;;;;;;;11.30;6.13;;;19.00;99.90;;;;;;5055080;28;20049;-74
2022/06/18 01:14:24;;;;;;;9.48;6.55;;;19.00;99.90;;;;;;5054508;28;20083;-74
2022/06/18 01:16:52;;;;;;;9.75;6.10;;;19.00;99.90;;;;;;5055980;28;20520;-73
2022/06/18 01:19:24;;;;;;;10.07;6.43;;;19.00;99.90;;;;;;5055806;28;20049;-74
2022/06/18 01:22:01;;;;;;;12.63;6.30;;;19.00;99.90;;;;;;5037636;28;20046;-74
2022/06/18 01:24:38;;;;;;;10.00;6.57;;;19.00;99.90;;;;;;5034781;28;20072;-73
2022/06/18 01:27:07;;;;;;;10.82;7.00;;;18.90;99.90;;;;;;5035268;28;20107;-73
2022/06/18 01:29:34;;;;;;;10.50;7.10;;;18.90;99.90;;;;;;5034677;28;20124;-75
2022/06/18 01:32:02;;;;;;;10.68;7.50;;;18.90;99.90;;;;;;5033389;28;20045;-73
2022/06/18 01:34:30;;;;;;;9.23;7.50;;;18.90;99.90;;;;;;5037996;28;20040;-73
2022/06/18 01:37:00;;;;;;;11.30;7.18;;;18.80;99.90;;;;;;5054509;28;20045;-75
2022/06/18 01:39:30;;;;;;;10.57;7.40;;;18.80;99.90;;;;;;5046815;28;20053;-76
2022/06/18 01:42:03;;;;;;;11.90;7.78;;;18.80;99.90;;;;;;5034134;28;20053;-75
2022/06/18 01:44:33;;;;;;;11.80;6.68;;;18.70;99.90;;;;;;5033000;28;20049;-75
2022/06/18 01:47:03;;;;;;;;;;;18.70;99.90;;;;;;5033645;28;20061;-75
2022/06/18 01:49:37;;;;;;;11.55;7.70;;;18.60;99.90;;;;;;5032828;28;19921;-75
2022/06/18 01:52:05;;;;;;;8.77;7.28;;;18.60;99.90;;;;;;5033192;28;20057;-74
2022/06/18 01:54:36;;;;;;;11.27;7.90;;;18.50;99.90;;;;;;5043667;28;20091;-74
2022/06/18 01:57:10;;;;;;;11.10;7.43;;;18.50;99.90;;;;;;5051856;28;20056;-73
2022/06/18 01:59:42;;;;;;;13.80;7.47;;;18.50;99.90;;;;;;5054133;28;20106;-73
2022/06/18 02:02:09;;;;;;;9.30;7.20;;;18.40;99.90;;;;;;5053941;28;20111;-74
2022/06/18 02:04:36;;;;;;;10.75;7.20;;;18.50;99.90;;;;;;5051617;28;20048;-74
2022/06/18 02:07:07;;;;;;;12.55;8.48;;;18.50;99.90;;;;;;5052163;28;20053;-74
2022/06/18 02:09:36;;;;;;;;;;;18.50;99.90;;;;;;5039219;28;20099;-73
2022/06/18 02:12:08;;;;;;;12.57;8.18;;;18.50;99.90;;;;;;5032011;28;19921;-75
2022/06/18 02:14:38;;;;;;;15.27;8.75;;;18.40;99.90;;;;;;5034015;28;20092;-73
2022/06/18 02:17:10;;;;;;;12.07;8.65;;;18.40;99.90;;;;;;5033192;28;20053;-73
2022/06/18 02:19:39;;;;;;;12.10;8.88;;;18.40;99.90;;;;;;5033256;28;20053;-73
2022/06/18 02:22:09;;;;;;;10.98;8.70;;;18.30;99.90;;;;;;5032858;28;20136;-73
2022/06/18 02:24:36;;;;;;;13.07;9.68;;;18.30;99.90;;;;;;5046314;28;20056;-74
2022/06/18 02:27:05;;;;;;;13.35;8.73;;;18.30;99.90;;;;;;5053627;28;20052;-75
2022/06/18 02:29:33;;;;;;;14.55;9.25;;;18.30;99.90;;;;;;5053325;28;20053;-73
2022/06/18 02:32:01;;;;;;;14.32;9.57;;;18.30;99.90;;;;;;5052335;28;20057;-75
2022/06/18 02:34:31;;;;;;;10.63;9.45;;;18.20;99.90;;;;;;5053273;28;20041;-74
2022/06/18 02:37:01;;;;;;;10.93;9.50;;;18.20;99.90;;;;;;5052285;28;20135;-74
2022/06/18 02:39:36;;;;;;;13.80;10.23;;;18.20;99.90;;;;;;5038204;28;20307;-74
2022/06/18 02:42:08;;;;;;;14.68;10.27;;;18.10;99.90;;;;;;5033330;28;20045;-73
2022/06/18 02:44:35;;;;;;;16.05;10.23;;;18.10;99.90;;;;;;5034766;28;20053;-74
2022/06/18 02:47:05;;;;;;;14.43;10.18;;;18.10;99.90;;;;;;5052616;28;20045;-74
2022/06/18 02:49:34;;;;;;;15.02;10.95;;;18.00;99.90;;;;;;5035831;28;20055;-75
2022/06/18 02:52:02;;;;;;;13.20;10.85;;;18.00;99.90;;;;;;5052769;28;20052;-74
2022/06/18 02:54:29;;;;;;;17.33;11.07;;;18.00;99.90;;;;;;5054022;28;20401;-74
2022/06/18 02:56:57;;;;;;;13.30;10.73;;;18.00;99.90;;;;;;5052950;28;20049;-75
2022/06/18 02:59:25;;;;;;;26.00;11.77;;;17.90;99.90;;;;;;5034692;28;20056;-74
2022/06/18 03:01:52;;;;;;;16.25;10.75;;;17.90;99.90;;;;;;5034736;28;20512;-74
2022/06/18 03:04:19;;;;;;;17.50;11.93;;;17.80;99.90;;;;;;5042651;28;20090;-74
2022/06/18 03:06:47;;;;;;;18.35;12.13;;;17.80;99.90;;;;;;5072497;28;20056;-75
2022/06/18 03:09:14;;;;;;;17.00;11.00;;;17.80;99.90;;;;;;5072932;28;20131;-74
2022/06/18 03:14:26;;;;;;;16.15;11.90;;;17.70;99.90;;;;;;5054539;28;20178;-74
2022/06/18 03:16:53;;;;;;;18.85;12.32;;;17.70;99.90;;;;;;5055371;28;20060;-74
2022/06/18 03:19:30;;;;;;;15.50;12.57;;;17.70;99.90;;;;;;5045885;28;20057;-74
2022/06/18 03:22:02;;;;;;;18.30;11.73;;;17.60;99.90;;;;;;5056174;28;20478;-74
2022/06/18 03:24:29;;;;;;;21.77;13.48;;;17.60;99.90;;;;;;5057064;28;20049;-74
2022/06/18 03:26:56;;;;;;;17.58;12.05;;;17.60;99.90;;;;;;5056369;28;20130;-74
2022/06/18 03:29:23;;;;;;;21.15;12.85;;;17.60;99.90;;;;;;5056581;28;20053;-74
2022/06/18 03:31:52;;;;;;;20.33;13.27;;;17.60;99.90;;;;;;5039155;28;20466;-74
2022/06/18 03:34:18;;;;;;;20.60;12.82;;;17.50;99.90;;;;;;5056151;28;20061;-74
2022/06/18 03:36:45;;;;;;;22.30;13.80;;;17.50;99.90;;;;;;5056408;28;20106;-74
2022/06/18 03:39:13;;;;;;;17.55;13.52;;;17.50;99.90;;;;;;5039239;28;20151;-74
2022/06/18 03:41:40;;;;;;;24.35;13.93;;;17.50;99.90;;;;;;5056032;28;20049;-73
2022/06/18 03:44:07;;;;;;;27.10;14.05;;;17.50;99.90;;;;;;5056385;28;20409;-74
2022/06/18 03:46:37;;;;;;;22.52;14.35;;;17.50;99.90;;;;;;5061248;28;20045;-74
2022/06/18 03:49:06;;;;;;;22.92;14.05;;;17.50;99.90;;;;;;5053604;28;20048;-74
2022/06/18 03:51:34;;;;;;;22.70;14.97;;;17.50;99.90;;;;;;5063383;28;20056;-72
2022/06/18 03:54:02;;;;;;;26.27;16.98;;;17.50;99.90;;;;;;5058777;28;20447;-74
2022/06/18 03:56:31;;;;;;;26.88;15.45;;;17.50;99.90;;;;;;5075738;28;20475;-74
2022/06/18 03:58:59;;;;;;;21.95;14.88;;;17.40;99.90;;;;;;5076280;28;20059;-74
2022/06/18 04:01:30;;;;;;;23.52;16.23;;;17.40;99.90;;;;;;5058447;28;20063;-74
2022/06/18 04:03:57;;;;;;;22.65;15.93;;;17.40;99.90;;;;;;5066129;28;20041;-74
2022/06/18 04:06:27;;;;;;;28.90;15.15;;;17.30;99.90;;;;;;5056342;28;20056;-73
2022/06/18 04:08:54;;;;;;;22.45;16.00;;;17.30;99.90;;;;;;5056291;28;20057;-75
2022/06/18 04:11:21;;;;;;;27.83;16.02;;;17.30;99.90;;;;;;5055926;28;20110;-74
2022/06/18 04:13:48;;;;;;;32.72;16.95;;;17.30;99.90;;;;;;5038554;28;20053;-74
2022/06/18 04:16:15;;;;;;;26.88;17.98;;;17.30;99.90;;;;;;5055780;28;20049;-74
2022/06/18 04:18:43;;;;;;;23.98;17.35;;;17.30;99.90;;;;;;5046652;28;20397;-75
2022/06/18 04:21:11;;;;;;;25.23;17.95;;;17.30;99.90;;;;;;5076015;28;20140;-74
2022/06/18 04:23:39;;;;;;;23.55;17.67;;;17.40;99.90;;;;;;5075422;28;20534;-74
2022/06/18 04:26:07;;;;;;;22.95;17.33;;;17.30;99.90;;;;;;5075704;28;20052;-75
2022/06/18 04:28:34;;;;;;;22.38;17.25;;;17.30;99.90;;;;;;5057836;28;20110;-75
2022/06/18 04:31:01;;;;;;;28.55;17.05;;;17.40;99.90;;;;;;5073722;28;20048;-75
2022/06/18 04:33:28;;;;;;;30.73;18.10;;;17.40;99.90;;;;;;5057032;28;20549;-75
2022/06/18 04:35:56;;;;;;;23.30;16.10;;;17.40;99.90;;;;;;5075781;28;20048;-74
2022/06/18 04:38:23;;;;;;;25.83;17.38;;;17.40;99.90;;;;;;5056812;28;20064;-75
2022/06/18 04:40:51;;;;;;;27.45;18.55;;;17.50;99.90;;;;;;5075892;28;20052;-74
2022/06/18 04:43:20;;;;;;;24.50;17.25;;;17.50;99.90;;;;;;5075251;28;20500;-74
2022/06/18 04:45:47;;;;;;;24.05;17.33;;;17.50;99.90;;;;;;5074595;28;20052;-74
2022/06/18 04:48:15;;;;;;;25.55;18.17;;;17.60;99.90;;;;;;5070660;28;20053;-74
2022/06/18 04:50:42;;;;;;;24.77;17.95;;;17.60;99.90;;;;;;5037493;28;20049;-74
2022/06/18 04:53:11;;;;;;;30.70;19.90;;;17.70;99.90;;;;;;5036706;28;20060;-74
2022/06/18 04:55:38;;;;;;;30.65;18.75;;;17.80;99.90;;;;;;5055222;28;20497;-74
2022/06/18 04:58:07;;;;;;;28.40;18.17;;;17.80;99.90;;;;;;5037403;28;20053;-74
2022/06/18 05:00:34;;;;;;;26.30;17.90;;;17.90;99.90;;;;;;5036740;28;20110;-75
2022/06/18 05:03:01;;;;;;;24.60;19.00;;;17.90;99.90;;;;;;5060019;28;20540;-75
2022/06/18 05:05:29;;;;;;;25.50;18.40;;;18.00;99.90;;;;;;5074662;28;20424;-73
2022/06/18 05:07:56;;;;;;;26.27;17.38;;;18.10;99.90;;;;;;5057122;28;20048;-75
2022/06/18 05:10:23;;;;;;;23.02;17.50;;;18.30;99.90;;;;;;5058019;28;20450;-75
2022/06/18 05:12:51;;;;;;;31.13;18.38;;;18.40;99.90;;;;;;5056959;28;20056;-74
2022/06/18 05:15:19;;;;;;;25.73;17.23;;;18.50;99.90;;;;;;5078911;28;20044;-75
2022/06/18 05:17:48;;;;;;;25.38;16.77;;;18.60;99.90;;;;;;5054146;28;20397;-73
2022/06/18 05:20:17;;;;;;;23.95;15.75;;;18.70;99.90;;;;;;5058978;28;20099;-75
2022/06/18 05:22:44;;;;;;;24.63;16.67;;;18.90;99.90;;;;;;5038309;28;20382;-75
2022/06/18 05:25:12;;;;;;;24.80;17.60;;;18.90;99.90;;;;;;5037124;28;20128;-74
2022/06/18 05:27:40;;;;;;;28.38;16.98;;;19.00;99.90;;;;;;5036107;28;20049;-74
2022/06/18 05:30:10;;;;;;;26.00;16.73;;;19.20;99.90;;;;;;5055069;28;20056;-75
2022/06/18 05:32:38;;;;;;;24.83;15.40;;;19.40;99.90;;;;;;5037138;28;20052;-75
2022/06/18 05:35:06;;;;;;;26.27;15.88;;;19.60;99.90;;;;;;5036409;28;20095;-71
2022/06/18 05:37:35;;;;;;;23.77;13.88;;;19.70;99.90;;;;;;5054383;28;20061;-72
2022/06/18 05:40:02;;;;;;;27.38;16.00;;;19.90;99.90;;;;;;5036587;28;20048;-72
2022/06/18 05:42:29;;;;;;;23.30;14.27;;;20.10;99.90;;;;;;5035284;28;20088;-71
2022/06/18 05:44:57;;;;;;;21.30;13.90;;;20.30;99.90;;;;;;5054343;28;20049;-71
2022/06/18 05:47:27;;;;;;;19.70;13.38;;;20.40;99.90;;;;;;5055199;28;20519;-71
2022/06/18 05:49:56;;;;;;;23.70;12.60;;;20.60;99.90;;;;;;5056143;28;20060;-72
2022/06/18 05:52:24;;;;;;;23.15;12.38;;;20.80;99.90;;;;;;5074059;28;20136;-74
2022/06/18 05:54:51;;;;;;;17.15;10.65;;;21.00;99.90;;;;;;5073903;28;20051;-74
2022/06/18 05:57:18;;;;;;;18.80;11.75;;;21.10;99.90;;;;;;5074000;28;20048;-75
2022/06/18 05:59:46;;;;;;;20.40;10.80;;;21.40;99.90;;;;;;5073970;28;20112;-74
2022/06/18 06:02:14;;;;;;;15.75;10.57;;;21.50;99.90;;;;;;5053249;28;20075;-74
2022/06/18 06:04:42;;;;;;;17.73;9.88;;;21.60;99.90;;;;;;5036070;28;20072;-75
2022/06/18 06:07:13;;;;;;;18.52;10.80;;;21.80;99.90;;;;;;5036325;28;20055;-76
2022/06/18 06:12:45;;;;;;;18.10;8.13;;;22.20;99.90;;;;;;5071990;28;20044;-77
2022/06/18 06:15:12;;;;;;;14.20;8.90;;;22.30;99.90;;;;;;5062165;28;20040;-76
2022/06/18 06:17:39;;;;;;;16.00;9.13;;;22.60;99.90;;;;;;5080843;28;20500;-74
2022/06/18 06:20:09;;;;;;;14.15;7.80;;;22.90;99.90;;;;;;5065545;28;20048;-75
2022/06/18 06:22:37;;;;;;;17.25;8.20;;;23.10;99.90;;;;;;5063104;28;20048;-74
2022/06/18 06:25:05;;;;;;;14.15;8.18;;;23.40;99.90;;;;;;5081075;28;20162;-76
2022/06/18 06:27:32;;;;;;;14.18;8.02;;;23.50;99.90;;;;;;5072279;28;20059;-76
2022/06/18 06:29:59;;;;;;;12.80;7.20;;;23.50;99.90;;;;;;5071202;28;20048;-76
2022/06/18 06:32:26;;;;;;;12.93;6.43;;;23.50;99.90;;;;;;5053240;28;20523;-76
2022/06/18 06:34:53;;;;;;;12.00;6.13;;;23.50;99.90;;;;;;5053148;28;20044;-75
2022/06/18 06:37:20;;;;;;;14.93;7.28;;;23.70;99.90;;;;;;5054074;28;20417;-75
2022/06/18 06:39:48;;;;;;;16.17;6.43;;;23.90;99.90;;;;;;5070443;28;20040;-75
2022/06/18 06:42:15;;;;;;;12.90;6.13;;;24.20;99.90;;;;;;5053083;28;20045;-78
2022/06/18 06:44:42;;;;;;;13.63;5.75;;;24.40;99.90;;;;;;5049705;28;20075;-76
2022/06/18 06:47:09;;;;;;;10.00;5.40;;;24.60;99.90;;;;;;5071082;28;20044;-77
2022/06/18 06:49:36;;;;;;;10.85;6.05;;;24.80;99.90;;;;;;5053017;28;20555;-76
2022/06/18 06:52:04;;;;;;;13.98;6.25;;;24.90;99.90;;;;;;5070625;28;20118;-75
2022/06/18 06:54:30;;;;;;;14.40;5.70;;;25.00;99.90;;;;;;5053912;28;20442;-75
2022/06/18 06:59:43;;;;;;;8.35;5.63;;;25.40;99.90;;;;;;5070079;28;20408;-76
2022/06/18 07:02:14;;;;;;;17.13;6.00;;;25.60;99.90;;;;;;5070468;28;20048;-76
2022/06/18 07:04:41;;;;;;;13.45;5.88;;;25.80;99.90;;;;;;5052077;28;20044;-76
2022/06/18 07:07:11;;;;;;;12.38;5.53;;;26.00;99.90;;;;;;5049765;28;20044;-76
2022/06/18 07:09:39;;;;;;;9.65;5.65;;;26.20;99.90;;;;;;5050382;28;20094;-76
2022/06/18 07:12:08;;;;;;;12.48;5.90;;;26.60;99.90;;;;;;5069735;28;20052;-75
2022/06/18 07:14:36;;;;;;;12.23;4.75;;;26.80;99.90;;;;;;5052206;28;20037;-76
2022/06/18 07:17:04;;;;;;;11.65;5.20;;;26.90;99.90;;;;;;5049305;28;20098;-76
2022/06/18 07:19:31;;;;;;;6.95;4.07;;;27.20;99.90;;;;;;5039023;28;20048;-77
2022/06/18 07:21:58;;;;;;;13.63;4.80;;;27.20;99.90;;;;;;5070269;28;20080;-77
2022/06/18 07:24:25;;;;;;;10.02;5.10;;;27.30;99.90;;;;;;5070865;28;20051;-75
2022/06/18 07:26:52;;;;;;;12.80;4.63;;;27.40;99.90;;;;;;5069273;28;20052;-75
2022/06/18 07:29:21;;;;;;;13.88;4.93;;;27.60;99.70;;;;;;5046352;28;20496;-76
2022/06/18 07:31:48;;;;;;;11.88;4.90;;;27.80;99.20;;;;;;5066745;28;20084;-78
2022/06/18 07:34:15;;;;;;;10.98;4.97;;;27.80;99.20;;;;;;5051820;28;20074;-77
2022/06/18 07:36:44;;;;;;;13.95;5.82;;;28.00;98.90;;;;;;5070771;28;20140;-78
2022/06/18 07:39:11;;;;;;;8.90;5.05;;;27.90;98.60;;;;;;5070419;28;20052;-76
2022/06/18 07:41:41;;;;;;;12.27;4.50;;;28.10;98.40;;;;;;5051576;28;20550;-76
2022/06/18 07:44:08;;;;;;;12.32;4.93;;;28.30;97.70;;;;;;5051845;28;20083;-78
2022/06/18 07:46:36;;;;;;;13.55;4.88;;;28.50;97.60;;;;;;5050719;28;20055;-78
2022/06/18 07:49:05;;;;;;;8.43;4.85;;;28.50;97.10;;;;;;5049735;28;20878;-77
2022/06/18 07:51:32;;;;;;;12.32;4.43;;;28.60;96.70;;;;;;5069441;28;20045;-78
2022/06/18 07:54:01;;;;;;;11.20;4.10;;;28.90;96.40;;;;;;5072334;28;20056;-78
2022/06/18 07:56:28;;;;;;;8.40;4.07;;;29.20;95.40;;;;;;5067643;28;20041;-76
2022/06/18 07:58:55;;;;;;;5.13;3.22;;;29.50;95.50;;;;;;5051986;28;20056;-77
2022/06/18 08:01:22;;;;;;;7.93;3.20;;;29.70;94.70;;;;;;5052169;28;20048;-77
2022/06/18 08:03:53;;;;;;;10.20;3.90;;;29.80;94.40;;;;;;5050374;28;20060;-77
2022/06/18 08:06:20;;;;;;;5.57;2.63;;;29.70;94.40;;;;;;5072503;28;20040;-77
2022/06/18 08:08:46;;;;;;;6.85;2.35;;;29.70;94.40;;;;;;5055556;28;20562;-76
2022/06/18 08:11:17;;;;;;;11.10;2.58;;;29.90;93.80;;;;;;5056114;28;20138;-76
2022/06/18 08:13:44;;;;;;;10.77;2.17;;;30.00;93.70;;;;;;5055370;28;20389;-77
2022/06/18 08:16:13;;;;;;;7.05;2.50;;;30.20;93.60;;;;;;5073412;28;20041;-77
2022/06/18 08:18:41;;;;;;;7.13;2.22;;;30.70;93.10;;;;;;5053853;28;20097;-76
2022/06/18 08:21:14;;;;;;;5.05;1.80;;;30.90;93.00;;;;;;5056486;28;20106;-75
2022/06/18 08:23:45;;;;;;;6.05;1.65;;;31.10;92.40;;;;;;5055299;28;20420;-75
2022/06/18 08:26:12;;;;;;;4.75;1.27;;;31.10;92.60;;;;;;5071868;28;20484;-75
2022/06/18 08:28:40;;;;;;;5.10;1.50;;;30.70;92.20;;;;;;5053142;28;20052;-76
2022/06/18 08:31:08;;;;;;;3.75;1.20;;;30.10;92.10;;;;;;5072859;28;20040;-77
2022/06/18 08:33:35;;;;;;;3.60;1.35;;;30.20;92.30;;;;;;5060104;28;20052;-77
2022/06/18 08:36:06;;;;;;;2.97;1.10;;;30.50;92.30;;;;;;5084185;28;20064;-76
2022/06/18 08:38:35;;;;;;;3.15;1.00;;;30.80;92.20;;;;;;5064600;28;20139;-76
2022/06/18 08:41:14;;;;;;;2.97;1.30;;;30.90;91.90;;;;;;5058285;28;20553;-75
2022/06/18 08:44:04;;;;;;;4.93;1.60;;;30.40;91.60;;;;;;5057745;28;20057;-76
2022/06/18 08:46:39;;;;;;;3.78;1.35;;;30.40;91.80;;;;;;5075665;28;20094;-76
2022/06/18 08:49:34;;;;;;;3.72;1.55;;;30.60;91.80;;;;;;5075656;28;20463;-77
2022/06/18 08:52:16;;;;;;;4.22;1.30;;;30.60;91.20;;;;;;5074798;28;20466;-76
2022/06/18 08:54:54;;;;;;;2.88;1.17;;;31.10;91.40;;;;;;5057983;28;20122;-76
2022/06/18 08:57:26;;;;;;;6.75;1.85;;;31.00;90.60;;;;;;5057067;28;20052;-77
2022/06/18 09:00:05;;;;;;;2.55;1.10;;;31.10;90.80;;;;;;5057020;28;20106;-77
2022/06/18 09:02:37;;;;;;;1.70;0.88;;;31.20;90.10;;;;;;5057855;28;20049;-76
2022/06/18 09:05:15;;;;;;;3.90;1.98;;;31.10;90.40;;;;;;5075516;28;20040;-77
2022/06/18 09:08:11;;;;;;;3.25;0.98;;;31.00;90.40;;;;;;5057959;28;20063;-74
2022/06/18 09:10:51;;;;;;;2.88;1.00;;;30.50;90.10;;;;;;5075916;28;20056;-76
2022/06/18 09:13:22;;;;;;;3.15;1.38;;;30.70;90.60;;;;;;5057256;28;20048;-76
2022/06/18 09:15:55;;;;;;;5.03;1.90;;;30.80;90.60;;;;;;5075522;28;20048;-77
2022/06/18 09:18:27;;;;;;;4.80;1.15;;;30.70;90.40;;;;;;5056785;28;20044;-76
2022/06/18 09:20:56;;;;;;;6.40;1.88;;;30.70;90.20;;;;;;5074866;28;20048;-76
2022/06/18 09:23:27;;;;;;;3.53;1.30;;;30.90;90.20;;;;;;5075357;28;20049;-77
2022/06/18 09:25:58;;;;;;;3.65;1.40;;;30.80;90.10;;;;;;5074444;28;20102;-76
2022/06/18 09:28:28;;;;;;;4.72;1.40;;;31.10;89.40;;;;;;5056844;28;20092;-77
2022/06/18 09:31:02;;;;;;;3.85;1.25;;;31.30;89.00;;;;;;5037134;28;20056;-76
2022/06/18 09:33:35;;;;;;;4.20;1.25;;;31.70;88.20;;;;;;5037007;28;20449;-76
2022/06/18 09:36:07;;;;;;;3.58;1.20;;;32.00;87.90;;;;;;5051932;28;20523;-77
2022/06/18 09:38:40;;;;;;;3.47;1.33;;;32.30;86.90;;;;;;5059001;28;20106;-76
2022/06/18 09:41:15;;;;;;;3.05;0.93;;;32.40;85.80;;;;;;5037637;28;20057;-75
2022/06/18 09:43:58;;;;;;;3.58;1.10;;;32.30;85.00;;;;;;5071472;28;20056;-77
2022/06/18 09:46:29;;;;;;;3.15;1.10;;;32.50;85.30;;;;;;5072512;28;20056;-77
2022/06/18 09:48:56;;;;;;;2.95;1.00;;;32.30;85.40;;;;;;5073414;28;20049;-77
2022/06/18 09:51:32;;;;;;;4.15;1.35;;;32.50;85.20;;;;;;5055333;28;20056;-78
2022/06/18 09:54:04;;;;;;;3.47;1.17;;;32.80;83.70;;;;;;5072335;28;20074;-76
2022/06/18 09:56:36;;;;;;;2.80;0.90;;;32.70;84.20;;;;;;5073273;28;20128;-77
2022/06/18 09:59:09;;;;;;;3.97;0.90;;;32.60;83.10;;;;;;5055059;28;20068;-77
2022/06/18 10:01:41;;;;;;;2.13;0.80;;;32.70;82.90;;;;;;5071665;28;20083;-76
2022/06/18 10:06:57;;;;;;;4.13;1.30;;;33.00;82.10;;;;;;5047921;28;20154;-76
2022/06/18 10:09:29;;;;;;;3.13;1.05;;;32.90;82.60;;;;;;5073093;28;20451;-77
2022/06/18 10:11:58;;;;;;;3.55;1.42;;;33.00;82.80;;;;;;5072501;28;20048;-77
2022/06/18 10:14:25;;;;;;;3.22;1.02;;;32.50;82.40;;;;;;5053438;28;20090;-77
2022/06/18 10:17:12;;;;;;;2.67;1.05;;;32.60;83.30;;;;;;5051397;28;20076;-77
2022/06/18 10:19:54;;;;;;;2.47;1.08;;;32.70;82.70;;;;;;5054483;28;20469;-77
2022/06/18 10:22:28;;;;;;;2.35;0.90;;;33.20;80.20;;;;;;5069868;28;20565;-78
2022/06/18 10:25:05;;;;;;;3.20;1.20;;;32.80;81.40;;;;;;5070367;28;20048;-76
2022/06/18 10:27:42;;;;;;;3.53;1.10;;;32.50;81.20;;;;;;5054334;28;20484;-77
2022/06/18 10:30:14;;;;;;;3.75;1.00;;;32.30;81.90;;;;;;5067863;28;20052;-77
2022/06/18 10:32:51;;;;;;;2.20;0.80;;;32.60;82.00;;;;;;5073249;28;20094;-76
2022/06/18 10:35:43;;;;;;;2.38;1.15;;;32.60;81.20;;;;;;5061919;28;20487;-77
2022/06/18 10:38:35;;;;;;;3.10;0.90;;;32.70;79.50;;;;;;5073477;28;20044;-76
2022/06/18 10:41:13;;;;;;;2.67;1.00;;;33.00;78.50;;;;;;5056447;28;20045;-76
2022/06/18 10:44:12;;;;;;;1.70;0.82;;;32.80;79.50;;;;;;5074837;28;20113;-77
2022/06/18 10:46:39;;;;;;;2.97;0.90;;;32.50;78.90;;;;;;5054477;28;20052;-77
2022/06/18 10:49:07;;;;;;;2.85;1.00;;;32.60;80.00;;;;;;5073453;28;20277;-77
2022/06/18 10:51:41;;;;;;;2.58;0.93;;;33.30;79.30;;;;;;5055092;28;20048;-78
2022/06/18 10:54:09;;;;;;;1.90;0.82;;;33.30;79.00;;;;;;5071699;28;20488;-76
2022/06/18 10:56:47;;;;;;;3.10;0.90;;;33.90;78.80;;;;;;5074758;28;20488;-75
2022/06/18 10:59:15;;;;;;;2.42;0.93;;;33.50;77.90;;;;;;5050580;28;20048;-77
2022/06/18 11:01:46;;;;;;;2.07;0.90;;;33.50;78.20;;;;;;5067555;28;20076;-82
2022/06/18 11:04:22;;;;;;;3.45;0.93;;;33.60;77.90;;;;;;5073098;28;20074;-72
2022/06/18 11:06:54;;;;;;;2.40;0.52;;;33.60;76.70;;;;;;5055609;28;20056;-73
2022/06/18 11:09:24;;;;;;;2.28;0.50;;;33.70;77.20;;;;;;5074934;28;20052;-73
2022/06/18 11:11:57;;;;;;;4.45;0.80;;;34.20;76.50;;;;;;5058246;28;20060;-73
2022/06/18 11:14:26;;;;;;;5.55;0.65;;;33.70;75.50;;;;;;5059188;28;20427;-73
2022/06/18 11:16:55;;;;;;;2.70;0.98;;;33.60;76.30;;;;;;5051369;28;20056;-73
2022/06/18 11:19:29;;;;;;;1.92;0.68;;;33.40;76.70;;;;;;5052325;28;20060;-73
2022/06/18 11:21:57;;;;;;;3.28;0.85;;;32.70;76.40;;;;;;5035719;28;20057;-74
2022/06/18 11:24:31;;;;;;;1.85;0.60;;;32.10;77.90;;;;;;5036378;28;20052;-73
2022/06/18 11:27:01;;;;;;;1.80;0.63;;;32.50;77.80;;;;;;5056301;28;20114;-73
2022/06/18 11:29:34;;;;;;;1.65;0.93;;;33.00;77.40;;;;;;5071396;28;20381;-72
2022/06/18 11:32:06;;;;;;;4.38;0.80;;;33.10;76.00;;;;;;5071250;28;20053;-72
2022/06/18 11:34:36;;;;;;;3.65;0.73;;;33.00;77.30;;;;;;5051078;28;20056;-77
2022/06/18 11:37:14;;;;;;;3.55;0.98;;;33.50;77.10;;;;;;5070930;28;20052;-78
2022/06/18 11:39:41;;;;;;;2.60;0.80;;;34.10;75.40;;;;;;5050622;28;20045;-78
2022/06/18 11:42:18;;;;;;;3.88;1.20;;;34.20;76.00;;;;;;5075302;28;20048;-77
2022/06/18 11:44:54;;;;;;;4.47;1.20;;;34.40;75.60;;;;;;5075713;28;20404;-79
2022/06/18 11:47:25;;;;;;;3.03;1.15;;;34.10;76.10;;;;;;5074050;28;20041;-78
2022/06/18 11:50:00;;;;;;;3.13;1.25;;;34.20;75.50;;;;;;5061612;28;20060;-78
2022/06/18 11:52:37;;;;;;;3.15;0.88;;;34.20;74.60;;;;;;5057020;28;20049;-76
2022/06/18 11:55:21;;;;;;;3.58;1.42;;;34.00;74.80;;;;;;5056682;28;20441;-81
2022/06/18 11:57:55;;;;;;;5.78;1.50;;;33.80;74.50;;;;;;5075967;28;20477;-77
2022/06/18 12:00:27;;;;;;;6.00;1.67;;;33.40;74.00;;;;;;5056604;28;20061;-77
2022/06/18 12:03:01;;;;;;;2.97;1.00;;;33.50;74.40;;;;;;5055813;28;20052;-81
2022/06/18 12:05:33;;;;;;;4.95;1.60;;;33.90;74.10;;;;;;5059003;28;20048;-82
2022/06/18 12:08:02;;;;;;;3.50;1.20;;;34.20;73.10;;;;;;5075537;28;20056;-81
2022/06/18 12:10:36;;;;;;;;;;;33.90;73.10;;;;;;5059597;28;20599;-83
2022/06/18 12:13:13;;;;;;;7.88;1.50;;;33.40;72.60;;;;;;5055702;28;20012;-78
2022/06/18 12:15:46;;;;;;;5.93;1.60;;;33.50;73.00;;;;;;5074505;28;20072;-78
2022/06/18 12:18:19;;;;;;;4.15;1.23;;;33.40;73.10;;;;;;5071749;28;20553;-79
2022/06/18 12:21:02;;;;;;;6.20;1.77;;;33.20;74.50;;;;;;5071047;28;20087;-79
2022/06/18 12:23:40;;;;;;;5.70;1.30;;;33.20;73.50;;;;;;5071453;28;20114;-78
2022/06/18 12:26:14;;;;;;;5.53;1.25;;;33.30;72.90;;;;;;5070923;28;20045;-79
2022/06/18 12:28:49;;;;;;;5.35;1.48;;;33.30;73.60;;;;;;5074263;28;20497;-83
2022/06/18 12:31:27;;;;;;;6.07;1.35;;;33.20;73.10;;;;;;5050327;28;20632;-82
2022/06/18 12:34:05;;;;;;;6.68;1.50;;;33.10;73.20;;;;;;5057374;28;20060;-82
2022/06/18 12:36:38;;;;;;;13.52;1.70;;;33.00;73.70;;;;;;5043234;28;20091;-86
2022/06/18 12:39:15;;;;;;;18.45;3.05;;;32.90;74.30;;;;;;5056946;28;20079;-87
2022/06/18 12:41:50;;;;;;;11.38;2.13;;;32.90;74.20;;;;;;5056987;28;20049;-81
2022/06/18 12:44:33;;;;;;;6.45;1.17;;;33.20;73.60;;;;;;5078689;28;20450;-82
2022/06/18 12:47:06;;;;;;;9.43;1.52;;;33.10;74.30;;;;;;5047854;28;20055;-81
2022/06/18 12:49:40;;;;;;;5.53;1.88;;;33.30;73.90;;;;;;5075774;28;20053;-82
2022/06/18 12:52:17;;;;;;;6.28;1.40;;;33.30;72.20;;;;;;5069298;28;20055;-80
2022/06/18 12:55:06;;;;;;;8.05;1.83;;;33.20;73.60;;;;;;5077599;28;20445;-82
2022/06/18 12:57:52;;;;;;;5.40;1.40;;;33.20;72.70;;;;;;5053012;28;20080;-82
2022/06/18 13:00:24;;;;;;;7.55;1.40;;;33.50;72.30;;;;;;5058834;28;20048;-81
2022/06/18 13:03:24;;;;;;;5.18;1.45;;;33.50;72.50;;;;;;5056751;28;20052;-81
2022/06/18 13:05:53;;;;;;;5.32;1.65;;;33.40;71.20;;;;;;5055149;28;20063;-82
2022/06/18 13:08:38;;;;;;;8.32;2.17;;;33.10;71.90;;;;;;5057550;28;20052;-83
2022/06/18 13:11:13;;;;;;;9.90;1.70;;;32.80;70.60;;;;;;5082660;28;20059;-84
2022/06/18 13:13:55;;;;;;;4.45;1.42;;;33.00;71.50;;;;;;5064764;28;20131;-83